Time;durP1;ratioP1;P1;durP2;ratioP2;P2;SDS_P1;SDS_P2;PMS_P1;PMS_P2;Temp;Humidity;BMP_temperature;BMP_pressure;BME280_temperature;BME280_humidity;BME280_pressure;Samples;Min_cycle;Max_cycle;Signal;HPM_P1;HPM_P2
2022/01/10 00:01:53;;;;;;;;;;;;;;;10.42;54.26;101113.50;5060489;28;19920;-82
2022/01/10 00:04:18;;;;;;;;;;;;;;;10.34;54.13;101113.81;5060555;28;20324;-84
2022/01/10 00:06:45;;;;;;;;;;;;;;;10.35;54.03;101111.97;5060391;28;20007;-83
2022/01/10 00:09:10;;;;;;;;;;;;;;;10.47;54.17;101127.69;5061449;28;19963;-83
2022/01/10 00:11:36;;;;;;;;;;;;;;;10.07;55.36;101129.31;5062634;28;19916;-84
2022/01/10 00:14:01;;;;;;;;;;;;;;;10.17;55.42;101135.22;5061253;28;19967;-84
2022/01/10 00:16:26;;;;;;;;;;;;;;;9.91;56.81;101129.94;5080219;28;20084;-84
2022/01/10 00:18:51;;;;;;;;;;;;;;;10.40;55.49;101137.91;5065613;28;20017;-84
2022/01/10 00:21:17;;;;;;;;;;;;;;;10.01;56.54;101143.06;5063151;28;19920;-84
2022/01/10 00:23:42;;;;;;;;;;;;;;;9.99;56.58;101145.84;5064716;28;19941;-83
2022/01/10 00:26:07;;;;;;;;;;;;;;;10.02;56.57;101152.94;5064724;28;19924;-83
2022/01/10 00:28:33;;;;;;;;;;;;;;;10.16;57.17;101149.69;5065029;28;19944;-84
2022/01/10 00:30:58;;;;;;;;;;;;;;;9.95;57.44;101146.94;5082227;28;19921;-83
2022/01/10 00:33:23;;;;;;;;;;;;;;;9.86;57.58;101150.88;5083181;28;19924;-83
2022/01/10 00:35:48;;;;;;;;;;;;;;;9.89;57.35;101152.59;5064301;28;19916;-84
2022/01/10 00:38:14;;;;;;;;;;;;;;;9.23;59.27;101166.78;5063603;28;19916;-83
2022/01/10 00:40:40;;;;;;;;;;;;;;;8.84;61.74;101157.34;5064498;28;20413;-83
2022/01/10 00:43:05;;;;;;;;;;;;;;;9.31;60.14;101155.69;5063978;28;19974;-83
2022/01/10 00:45:31;;;;;;;;;;;;;;;9.48;58.98;101164.06;5064198;28;20015;-83
2022/01/10 00:47:57;;;;;;;;;;;;;;;9.55;59.07;101178.19;5063654;28;19962;-84
2022/01/10 00:50:24;;;;;;;;;;;;;;;9.57;59.05;101179.91;5082901;28;19916;-84
2022/01/10 00:52:49;;;;;;;;;;;;;;;9.41;58.84;101192.22;5082291;28;19916;-84
2022/01/10 00:55:15;;;;;;;;;;;;;;;8.97;60.67;101183.94;5081835;28;19924;-82
2022/01/10 00:57:40;;;;;;;;;;;;;;;9.10;61.04;101190.63;5063919;28;19921;-84
2022/01/10 01:00:07;;;;;;;;;;;;;;;9.31;60.10;101201.59;5082142;28;20019;-83
2022/01/10 01:02:32;;;;;;;;;;;;;;;9.03;60.32;101200.78;5064793;28;19921;-84
2022/01/10 01:04:58;;;;;;;;;;;;;;;9.07;60.80;101206.94;5081369;28;19924;-83
2022/01/10 01:07:24;;;;;;;;;;;;;;;9.57;59.65;101212.31;5064605;28;19959;-83
2022/01/10 01:10:00;;;;;;;;;;;;;;;9.97;57.41;101218.00;5063946;28;19924;-84
2022/01/10 01:12:41;;;;;;;;;;;;;;;9.78;57.67;101208.84;5081783;28;19917;-84
2022/01/10 01:15:19;;;;;;;;;;;;;;;9.90;57.19;101211.97;5080282;28;19923;-84
2022/01/10 01:17:59;;;;;;;;;;;;;;;9.63;58.27;101222.03;5080872;28;19923;-83
2022/01/10 01:20:44;;;;;;;;;;;;;;;9.81;58.10;101220.41;5080859;28;20019;-84
2022/01/10 01:26:03;;;;;;;;;;;;;;;9.71;58.85;101225.31;5081091;28;20309;-82
2022/01/10 01:28:30;;;;;;;;;;;;;;;9.84;58.70;101224.81;5061060;28;19923;-83
2022/01/10 01:30:55;;;;;;;;;;;;;;;9.59;59.14;101228.47;5061942;28;19948;-82
2022/01/10 01:33:21;;;;;;;;;;;;;;;9.73;58.69;101233.34;5063498;28;19943;-83
2022/01/10 01:35:47;;;;;;;;;;;;;;;9.61;59.10;101229.28;5081366;28;19916;-83
2022/01/10 01:38:13;;;;;;;;;;;;;;;9.36;59.76;101245.50;5063927;28;19920;-84
2022/01/10 01:40:44;;;;;;;;;;;;;;;9.19;60.68;101247.00;5064465;28;19944;-84
2022/01/10 01:43:10;;;;;;;;;;;;;;;9.36;60.42;101245.50;5080825;28;19932;-83
2022/01/10 01:45:37;;;;;;;;;;;;;;;9.53;59.42;101248.47;5063398;28;19928;-82
2022/01/10 01:48:02;;;;;;;;;;;;;;;9.50;59.20;101248.59;5061361;28;19923;-82
2022/01/10 01:50:27;;;;;;;;;;;;;;;9.49;59.51;101254.91;5062542;28;19944;-84
2022/01/10 01:52:53;;;;;;;;;;;;;;;8.99;61.55;101252.22;5063429;28;19916;-83
2022/01/10 01:55:18;;;;;;;;;;;;;;;9.23;60.29;101261.28;5063742;28;20336;-82
2022/01/10 01:57:43;;;;;;;;;;;;;;;9.18;61.73;101269.53;5082113;28;20374;-83
2022/01/10 02:00:09;;;;;;;;;;;;;;;9.16;61.23;101268.72;5082261;28;19916;-83
2022/01/10 02:02:34;;;;;;;;;;;;;;;9.60;59.63;101281.53;5065234;28;19972;-84
2022/01/10 02:04:59;;;;;;;;;;;;;;;9.09;60.64;101296.84;5062765;28;19917;-84
2022/01/10 02:07:24;;;;;;;;;;;;;;;9.60;58.75;101288.75;5080443;28;19938;-82
2022/01/10 02:09:50;;;;;;;;;;;;;;;9.55;58.36;101300.59;5063289;28;19929;-83
2022/01/10 02:12:15;;;;;;;;;;;;;;;9.80;57.31;101307.84;5061664;28;19919;-85
2022/01/10 02:14:46;;;;;;;;;;;;;;;9.94;56.64;101307.31;5063057;28;19916;-84
2022/01/10 02:17:13;;;;;;;;;;;;;;;10.06;56.18;101312.25;5063920;28;20003;-83
2022/01/10 02:19:38;;;;;;;;;;;;;;;10.25;55.01;101320.56;5063857;28;19928;-84
2022/01/10 02:22:03;;;;;;;;;;;;;;;10.20;54.87;101313.56;5081391;28;19917;-83
2022/01/10 02:24:28;;;;;;;;;;;;;;;10.46;54.37;101323.38;5063393;28;19912;-82
2022/01/10 02:26:54;;;;;;;;;;;;;;;10.37;54.45;101326.44;5063037;28;19939;-83
2022/01/10 02:29:19;;;;;;;;;;;;;;;10.49;53.81;101331.38;5062684;28;19917;-82
2022/01/10 02:31:45;;;;;;;;;;;;;;;10.57;53.63;101334.66;5063324;28;19927;-81
2022/01/10 02:34:10;;;;;;;;;;;;;;;10.66;53.66;101340.63;5063357;28;20250;-83
2022/01/10 02:36:36;;;;;;;;;;;;;;;10.64;53.64;101351.53;5061788;28;19924;-82
2022/01/10 02:39:08;;;;;;;;;;;;;;;10.64;53.51;101352.44;5079943;28;19952;-82
2022/01/10 02:41:34;;;;;;;;;;;;;;;10.65;53.06;101356.00;5062378;28;19920;-82
2022/01/10 02:44:01;;;;;;;;;;;;;;;10.66;53.12;101365.00;5061515;28;19969;-81
2022/01/10 02:46:26;;;;;;;;;;;;;;;10.69;53.57;101364.88;5079783;28;20336;-83
2022/01/10 02:48:52;;;;;;;;;;;;;;;10.65;53.88;101358.72;5080466;28;19917;-84
2022/01/10 02:51:17;;;;;;;;;;;;;;;10.67;53.76;101372.19;5062721;28;19958;-83
2022/01/10 02:53:42;;;;;;;;;;;;;;;10.72;53.32;101375.56;5079851;28;19939;-82
2022/01/10 02:56:09;;;;;;;;;;;;;;;10.80;53.16;101368.91;5081486;28;19920;-83
2022/01/10 02:58:35;;;;;;;;;;;;;;;10.86;52.81;101384.03;5064218;28;19923;-83
2022/01/10 03:01:00;;;;;;;;;;;;;;;10.79;53.04;101387.91;5081896;28;19920;-83
2022/01/10 03:03:26;;;;;;;;;;;;;;;10.75;53.21;101383.56;5080355;28;19920;-84
2022/01/10 03:05:51;;;;;;;;;;;;;;;10.58;53.78;101392.34;5062479;28;19916;-84
2022/01/10 03:08:16;;;;;;;;;;;;;;;10.57;53.61;101404.13;5061474;28;19920;-85
2022/01/10 03:10:42;;;;;;;;;;;;;;;10.56;53.69;101392.41;5079783;28;19923;-83
2022/01/10 03:13:07;;;;;;;;;;;;;;;10.40;54.48;101402.06;5080503;28;19920;-84
2022/01/10 03:15:32;;;;;;;;;;;;;;;10.34;54.47;101405.00;5062570;28;19916;-83
2022/01/10 03:17:58;;;;;;;;;;;;;;;10.25;54.94;101406.19;5079937;28;19917;-84
2022/01/10 03:20:23;;;;;;;;;;;;;;;10.36;55.02;101416.66;5061765;28;19924;-83
2022/01/10 03:22:49;;;;;;;;;;;;;;;10.11;55.44;101415.72;5062493;28;19917;-84
2022/01/10 03:25:14;;;;;;;;;;;;;;;10.15;55.99;101421.00;5061207;28;19930;-84
2022/01/10 03:27:39;;;;;;;;;;;;;;;10.09;56.25;101420.28;5079963;28;20354;-84
2022/01/10 03:30:05;;;;;;;;;;;;;;;10.18;56.16;101432.59;5060994;28;19923;-84
2022/01/10 03:32:30;;;;;;;;;;;;;;;10.01;56.98;101437.69;5061231;28;19956;-84
2022/01/10 03:34:57;;;;;;;;;;;;;;;10.58;55.68;101449.16;5079946;28;19943;-84
2022/01/10 03:37:23;;;;;;;;;;;;;;;10.29;55.98;101446.56;5060334;28;19938;-83
2022/01/10 03:39:48;;;;;;;;;;;;;;;10.34;56.19;101445.56;5061699;28;19916;-85
2022/01/10 03:42:13;;;;;;;;;;;;;;;9.97;57.03;101458.56;5061156;28;20270;-83
2022/01/10 03:44:38;;;;;;;;;;;;;;;10.03;56.96;101458.34;5079835;28;20354;-83
2022/01/10 03:47:05;;;;;;;;;;;;;;;9.85;58.26;101467.09;5079457;28;19937;-83
2022/01/10 03:49:30;;;;;;;;;;;;;;;9.83;57.82;101467.16;5061556;28;19948;-83
2022/01/10 03:51:55;;;;;;;;;;;;;;;9.69;58.42;101474.84;5078473;28;19938;-83
2022/01/10 03:54:21;;;;;;;;;;;;;;;9.48;59.25;101474.66;5060433;28;19916;-84
2022/01/10 03:56:47;;;;;;;;;;;;;;;9.52;59.55;101478.13;5060424;28;19916;-84
2022/01/10 03:59:12;;;;;;;;;;;;;;;9.24;60.74;101484.44;5062176;28;19922;-84
2022/01/10 04:01:39;;;;;;;;;;;;;;;9.22;60.99;101472.78;5079515;28;19924;-83
2022/01/10 04:04:05;;;;;;;;;;;;;;;9.45;61.00;101481.94;5078279;28;19924;-83
2022/01/10 04:06:30;;;;;;;;;;;;;;;9.58;60.23;101475.22;5058977;28;19917;-84
2022/01/10 04:08:55;;;;;;;;;;;;;;;9.40;60.57;101474.91;5059519;28;19917;-82
2022/01/10 04:11:20;;;;;;;;;;;;;;;9.25;62.00;101485.28;5059786;28;20286;-83
2022/01/10 04:13:46;;;;;;;;;;;;;;;9.65;60.40;101478.59;5076851;28;19924;-84
2022/01/10 04:16:11;;;;;;;;;;;;;;;9.83;59.93;101488.78;5078513;28;20366;-84
2022/01/10 04:18:36;;;;;;;;;;;;;;;10.18;58.99;101492.06;5060564;28;19966;-83
2022/01/10 04:21:01;;;;;;;;;;;;;;;10.07;58.77;101494.25;5078038;28;19917;-84
2022/01/10 04:23:26;;;;;;;;;;;;;;;10.20;58.40;101495.59;5060379;28;19966;-84
2022/01/10 04:25:52;;;;;;;;;;;;;;;10.02;58.96;101501.66;5060454;28;19917;-84
2022/01/10 04:28:17;;;;;;;;;;;;;;;10.21;57.88;101516.28;5078045;28;20378;-84
2022/01/10 04:30:43;;;;;;;;;;;;;;;10.85;56.21;101523.00;5077193;28;19925;-84
2022/01/10 04:33:10;;;;;;;;;;;;;;;10.45;57.12;101521.81;5060616;28;19927;-84
2022/01/10 04:35:35;;;;;;;;;;;;;;;10.33;57.73;101524.94;5060675;28;20290;-83
2022/01/10 04:38:00;;;;;;;;;;;;;;;10.72;56.35;101535.22;5079792;28;20411;-83
2022/01/10 04:40:27;;;;;;;;;;;;;;;10.97;55.62;101537.91;5061852;28;19904;-83
2022/01/10 04:42:52;;;;;;;;;;;;;;;10.94;56.04;101549.72;5060005;28;19921;-83
2022/01/10 04:45:18;;;;;;;;;;;;;;;11.32;54.43;101560.94;5058451;28;20013;-82
2022/01/10 04:47:43;;;;;;;;;;;;;;;11.26;54.68;101558.47;5059053;28;19916;-82
2022/01/10 04:52:46;;;;;;;;;;;;;;;11.69;53.12;101570.28;5077350;28;19920;-84
2022/01/10 04:55:13;;;;;;;;;;;;;;;11.47;53.82;101586.53;5077284;28;19916;-84
2022/01/10 04:57:38;;;;;;;;;;;;;;;11.65;53.63;101579.47;5077204;28;19916;-84
2022/01/10 05:00:05;;;;;;;;;;;;;;;10.80;55.91;101589.97;5058880;28;19917;-83
2022/01/10 05:02:30;;;;;;;;;;;;;;;10.32;57.89;101591.63;5059444;28;19967;-83
2022/01/10 05:04:55;;;;;;;;;;;;;;;10.50;57.88;101590.13;5061385;28;19916;-84
2022/01/10 05:07:20;;;;;;;;;;;;;;;10.68;57.10;101603.97;5062184;28;19916;-83
2022/01/10 05:09:46;;;;;;;;;;;;;;;11.18;56.08;101601.19;5062297;28;19962;-83
2022/01/10 05:12:12;;;;;;;;;;;;;;;10.35;57.56;101602.38;5062645;28;19912;-84
2022/01/10 05:14:37;;;;;;;;;;;;;;;10.08;58.62;101601.47;5080469;28;19916;-83
2022/01/10 05:17:02;;;;;;;;;;;;;;;10.32;58.42;101609.69;5063121;28;19917;-83
2022/01/10 05:19:28;;;;;;;;;;;;;;;10.66;57.07;101612.13;5080228;28;20377;-86
2022/01/10 05:21:53;;;;;;;;;;;;;;;10.70;57.62;101611.06;5081133;28;20007;-84
2022/01/10 05:24:18;;;;;;;;;;;;;;;10.78;57.16;101608.97;5063067;28;19917;-83
2022/01/10 05:26:43;;;;;;;;;;;;;;;10.67;56.78;101621.13;5061859;28;19917;-83
2022/01/10 05:29:08;;;;;;;;;;;;;;;10.71;56.51;101622.78;5078786;28;19916;-84
2022/01/10 05:31:34;;;;;;;;;;;;;;;10.87;56.40;101633.94;5060575;28;19928;-84
2022/01/10 05:34:00;;;;;;;;;;;;;;;10.75;55.71;101637.97;5060545;28;20009;-83
2022/01/10 05:36:25;;;;;;;;;;;;;;;10.99;55.22;101647.03;5059982;28;19917;-83
2022/01/10 05:38:50;;;;;;;;;;;;;;;11.12;54.84;101644.75;5062293;28;19962;-84
2022/01/10 05:41:15;;;;;;;;;;;;;;;10.43;56.47;101650.78;5060353;28;20337;-84
2022/01/10 05:43:41;;;;;;;;;;;;;;;10.40;56.79;101667.13;5062167;28;20433;-85
2022/01/10 05:46:10;;;;;;;;;;;;;;;10.54;56.68;101654.03;5079308;28;19943;-85
2022/01/10 05:48:36;;;;;;;;;;;;;;;11.11;55.05;101661.94;5061227;28;19917;-85
2022/01/10 05:51:01;;;;;;;;;;;;;;;11.22;54.18;101670.56;5060969;28;20362;-84
2022/01/10 05:53:27;;;;;;;;;;;;;;;11.47;53.30;101670.53;5078383;28;19924;-85
2022/01/10 05:55:52;;;;;;;;;;;;;;;11.29;53.60;101677.53;5080210;28;19920;-85
2022/01/10 05:58:18;;;;;;;;;;;;;;;10.42;55.67;101676.97;5078866;28;19943;-85
2022/01/10 06:00:43;;;;;;;;;;;;;;;10.26;57.09;101686.50;5061461;28;19924;-83
2022/01/10 06:03:10;;;;;;;;;;;;;;;10.22;57.47;101691.13;5061417;28;19975;-83
2022/01/10 06:05:35;;;;;;;;;;;;;;;10.17;57.97;101692.22;5061542;28;19916;-84
2022/01/10 06:08:03;;;;;;;;;;;;;;;10.89;56.18;101697.06;5061173;28;20349;-86
2022/01/10 06:10:28;;;;;;;;;;;;;;;11.20;54.49;101695.94;5061323;28;20346;-84
2022/01/10 06:12:54;;;;;;;;;;;;;;;10.83;55.78;101700.84;5080261;28;19916;-85
2022/01/10 06:15:19;;;;;;;;;;;;;;;9.89;58.87;101703.91;5078023;28;19920;-86
2022/01/10 06:17:44;;;;;;;;;;;;;;;9.84;59.00;101722.94;5079314;28;20362;-84
2022/01/10 06:20:09;;;;;;;;;;;;;;;9.40;60.65;101730.56;5061592;28;19916;-84
2022/01/10 06:22:35;;;;;;;;;;;;;;;9.38;61.58;101729.72;5079113;28;19920;-83
2022/01/10 06:25:00;;;;;;;;;;;;;;;9.85;59.97;101731.94;5059911;28;19920;-82
2022/01/10 06:27:25;;;;;;;;;;;;;;;9.83;60.17;101742.81;5060743;28;19923;-83
2022/01/10 06:29:51;;;;;;;;;;;;;;;9.34;60.98;101741.53;5060333;28;20301;-83
2022/01/10 06:32:16;;;;;;;;;;;;;;;9.44;61.14;101750.28;5078137;28;20023;-86
2022/01/10 06:34:41;;;;;;;;;;;;;;;9.84;59.65;101744.56;5062230;28;20286;-84
2022/01/10 06:37:06;;;;;;;;;;;;;;;10.00;57.95;101754.94;5081785;28;19928;-92
2022/01/10 06:39:32;;;;;;;;;;;;;;;9.84;59.21;101758.06;5062487;28;20407;-86
2022/01/10 06:41:57;;;;;;;;;;;;;;;9.40;61.01;101755.75;5060333;28;19931;-83
2022/01/10 06:44:22;;;;;;;;;;;;;;;9.73;60.56;101768.34;5078840;28;19917;-91
2022/01/10 06:46:47;;;;;;;;;;;;;;;10.36;58.67;101768.28;5061215;28;19953;-83
2022/01/10 06:49:13;;;;;;;;;;;;;;;10.03;59.53;101779.16;5060112;28;19916;-85
2022/01/10 06:51:38;;;;;;;;;;;;;;;10.01;60.87;101783.72;5079082;28;19923;-83
2022/01/10 06:54:03;;;;;;;;;;;;;;;9.81;60.45;101790.59;5060201;28;20374;-82
2022/01/10 06:56:28;;;;;;;;;;;;;;;9.92;59.43;101788.47;5060477;28;20265;-83
2022/01/10 06:58:54;;;;;;;;;;;;;;;9.04;63.87;101795.41;5059868;28;19912;-83
2022/01/10 07:01:20;;;;;;;;;;;;;;;9.35;63.37;101809.00;5060541;28;19928;-83
2022/01/10 07:03:45;;;;;;;;;;;;;;;9.08;63.80;101807.03;5059917;28;19925;-82
2022/01/10 07:06:10;;;;;;;;;;;;;;;9.52;62.79;101808.53;5077741;28;20266;-84
2022/01/10 07:08:36;;;;;;;;;;;;;;;9.09;63.67;101825.91;5059684;28;19920;-83
2022/01/10 07:11:02;;;;;;;;;;;;;;;9.12;64.13;101833.00;5059216;28;20042;-83
2022/01/10 07:13:27;;;;;;;;;;;;;;;8.86;65.20;101840.84;5076359;28;19916;-83
2022/01/10 07:15:53;;;;;;;;;;;;;;;9.23;64.61;101844.44;5058910;28;19939;-82
2022/01/10 07:18:18;;;;;;;;;;;;;;;8.91;64.77;101842.53;5060362;28;20376;-83
2022/01/10 07:20:43;;;;;;;;;;;;;;;8.93;65.00;101852.38;5075659;28;19917;-82
2022/01/10 07:23:08;;;;;;;;;;;;;;;9.20;64.76;101858.00;5057641;28;19916;-83
2022/01/10 07:25:35;;;;;;;;;;;;;;;8.95;65.51;101863.13;5058904;28;19917;-83
2022/01/10 07:28:00;;;;;;;;;;;;;;;9.39;64.14;101872.81;5076627;28;19924;-83
2022/01/10 07:30:25;;;;;;;;;;;;;;;9.34;64.29;101880.13;5055137;28;19920;-83
2022/01/10 07:32:51;;;;;;;;;;;;;;;9.15;64.32;101885.13;5055429;28;19967;-83
2022/01/10 07:35:16;;;;;;;;;;;;;;;9.59;63.75;101884.91;5074426;28;20366;-83
2022/01/10 07:37:41;;;;;;;;;;;;;;;9.24;64.20;101902.91;5056611;28;19959;-82
2022/01/10 07:40:07;;;;;;;;;;;;;;;9.42;63.66;101900.66;5057365;28;19932;-83
2022/01/10 07:42:32;;;;;;;;;;;;;;;9.94;62.73;101899.25;5053720;28;19920;-83
2022/01/10 07:44:57;;;;;;;;;;;;;;;9.64;63.47;101909.97;5053484;28;19920;-83
2022/01/10 07:47:22;;;;;;;;;;;;;;;9.18;64.71;101917.44;5054476;28;19917;-83
2022/01/10 07:49:48;;;;;;;;;;;;;;;9.53;63.58;101918.38;5055214;28;19966;-83
2022/01/10 07:52:13;;;;;;;;;;;;;;;9.58;63.39;101924.53;5055438;28;19943;-83
2022/01/10 07:54:38;;;;;;;;;;;;;;;9.33;64.06;101935.09;5071790;28;19917;-82
2022/01/10 07:57:04;;;;;;;;;;;;;;;9.61;62.92;101942.47;5055958;28;19970;-82
2022/01/10 07:59:29;;;;;;;;;;;;;;;9.77;62.74;101934.88;5053941;28;19924;-82
2022/01/10 08:01:54;;;;;;;;;;;;;;;9.98;62.06;101946.00;5054361;28;20387;-82
2022/01/10 08:04:19;;;;;;;;;;;;;;;11.32;56.76;101944.72;5055564;28;19967;-82
2022/01/10 08:06:44;;;;;;;;;;;;;;;11.82;54.31;101952.06;5055706;28;19916;-83
2022/01/10 08:09:10;;;;;;;;;;;;;;;12.07;53.87;101952.09;5054624;28;20438;-83
2022/01/10 08:11:35;;;;;;;;;;;;;;;12.02;53.56;101946.84;5055611;28;20004;-82
2022/01/10 08:14:01;;;;;;;;;;;;;;;11.95;54.17;101961.56;5055150;28;19916;-82
2022/01/10 08:16:26;;;;;;;;;;;;;;;11.43;55.02;101963.31;5054878;28;20370;-84
2022/01/10 08:18:51;;;;;;;;;;;;;;;11.51;55.27;101963.97;5054709;28;20432;-83
2022/01/10 08:21:16;;;;;;;;;;;;;;;11.89;54.14;101969.88;5054640;28;19917;-83
2022/01/10 08:23:42;;;;;;;;;;;;;;;12.07;53.28;101983.78;5057443;28;19923;-83
2022/01/10 08:26:08;;;;;;;;;;;;;;;11.99;53.80;101981.34;5054849;28;19996;-83
2022/01/10 08:28:34;;;;;;;;;;;;;;;12.25;53.16;101987.66;5055425;28;19970;-84
2022/01/10 08:30:59;;;;;;;;;;;;;;;11.84;53.51;101997.16;5055371;28;19916;-83
2022/01/10 08:33:25;;;;;;;;;;;;;;;11.91;53.45;101997.81;5055358;28;19925;-82
2022/01/10 08:35:51;;;;;;;;;;;;;;;12.09;53.62;102004.47;5056705;28;19916;-83
2022/01/10 08:38:17;;;;;;;;;;;;;;;12.09;53.28;102003.59;5058956;28;20056;-83
2022/01/10 08:40:42;;;;;;;;;;;;;;;11.64;54.60;102008.69;5075506;28;19986;-83
2022/01/10 08:43:10;;;;;;;;;;;;;;;11.49;54.61;102012.78;5058889;28;19924;-83
2022/01/10 08:45:35;;;;;;;;;;;;;;;11.23;55.62;102021.78;5057985;28;19978;-83
2022/01/10 08:48:00;;;;;;;;;;;;;;;11.49;55.61;102020.03;5059159;28;19963;-82
2022/01/10 08:50:27;;;;;;;;;;;;;;;10.59;57.28;102025.47;5059227;28;19917;-82
2022/01/10 08:52:52;;;;;;;;;;;;;;;11.10;57.42;102025.78;5057945;28;20374;-83
2022/01/10 08:55:18;;;;;;;;;;;;;;;11.13;57.12;102025.69;5057647;28;19921;-83
2022/01/10 08:57:43;;;;;;;;;;;;;;;10.56;58.75;102033.66;5057845;28;19939;-83
2022/01/10 09:00:09;;;;;;;;;;;;;;;11.44;56.24;102031.00;5057616;28;19916;-83
2022/01/10 09:02:35;;;;;;;;;;;;;;;10.99;56.78;102037.84;5056380;28;19921;-82
2022/01/10 09:05:00;;;;;;;;;;;;;;;10.96;57.01;102046.03;5059338;28;20374;-82
2022/01/10 09:07:26;;;;;;;;;;;;;;;10.87;57.19;102045.41;5058697;28;19917;-83
2022/01/10 09:09:52;;;;;;;;;;;;;;;10.36;59.55;102046.88;5059387;28;19917;-83
2022/01/10 09:12:17;;;;;;;;;;;;;;;10.14;60.76;102051.94;5058826;28;19991;-84
2022/01/10 09:14:42;;;;;;;;;;;;;;;10.49;60.89;102066.34;5059294;28;20337;-83
2022/01/10 09:17:08;;;;;;;;;;;;;;;9.86;62.71;102061.66;5074870;28;19916;-83
2022/01/10 09:19:33;;;;;;;;;;;;;;;10.39;61.33;102063.03;5058878;28;20015;-83
2022/01/10 09:21:58;;;;;;;;;;;;;;;10.99;59.45;102062.19;5060410;28;19956;-82
2022/01/10 09:24:23;;;;;;;;;;;;;;;11.46;56.85;102071.63;5061260;28;20036;-85
2022/01/10 09:26:49;;;;;;;;;;;;;;;11.67;56.03;102065.50;5058407;28;19924;-83
2022/01/10 09:29:14;;;;;;;;;;;;;;;10.71;59.60;102077.47;5058127;28;19923;-83
2022/01/10 09:31:39;;;;;;;;;;;;;;;10.54;59.53;102081.53;5057603;28;20290;-83
2022/01/10 09:34:04;;;;;;;;;;;;;;;10.69;60.15;102090.16;5060223;28;19998;-82
2022/01/10 09:36:31;;;;;;;;;;;;;;;10.91;59.33;102096.72;5059091;28;19913;-82
2022/01/10 09:38:57;;;;;;;;;;;;;;;10.61;60.46;102091.28;5057496;28;19917;-83
2022/01/10 09:41:23;;;;;;;;;;;;;;;10.59;60.81;102101.22;5062144;28;21669;-83
2022/01/10 09:43:50;;;;;;;;;;;;;;;10.72;59.69;102100.88;5080817;28;19925;-83
2022/01/10 09:46:16;;;;;;;;;;;;;;;10.58;59.81;102104.88;5061008;28;20282;-82
2022/01/10 09:48:41;;;;;;;;;;;;;;;10.50;60.29;102112.31;5059779;28;19917;-82
2022/01/10 09:51:06;;;;;;;;;;;;;;;11.02;59.35;102117.19;5078041;28;20313;-83
2022/01/10 09:53:32;;;;;;;;;;;;;;;10.70;59.81;102119.88;5078697;28;20163;-83
2022/01/10 09:55:57;;;;;;;;;;;;;;;11.38;58.72;102117.91;5061808;28;19923;-83
2022/01/10 09:58:22;;;;;;;;;;;;;;;11.21;58.51;102126.56;5060339;28;19928;-82
2022/01/10 10:00:48;;;;;;;;;;;;;;;11.38;57.43;102130.56;5060659;28;19924;-83
2022/01/10 10:03:13;;;;;;;;;;;;;;;11.09;59.41;102144.03;5059911;28;19920;-83
2022/01/10 10:05:38;;;;;;;;;;;;;;;11.54;57.12;102145.44;5059487;28;19970;-83
2022/01/10 10:08:04;;;;;;;;;;;;;;;12.09;55.71;102152.78;5078184;28;20003;-82
2022/01/10 10:10:29;;;;;;;;;;;;;;;12.00;55.15;102152.16;5059772;28;19920;-83
2022/01/10 10:12:55;;;;;;;;;;;;;;;12.56;54.16;102158.41;5077798;28;20282;-82
2022/01/10 10:15:26;;;;;;;;;;;;;;;11.97;55.39;102164.91;5060654;28;20373;-82
2022/01/10 10:17:51;;;;;;;;;;;;;;;12.62;53.36;102162.75;5077637;28;19938;-83
2022/01/10 10:20:20;;;;;;;;;;;;;;;11.77;54.84;102173.66;5077786;28;20434;-83
2022/01/10 10:22:46;;;;;;;;;;;;;;;11.85;55.70;102187.84;5059130;28;19938;-86
2022/01/10 10:25:12;;;;;;;;;;;;;;;12.36;54.47;102187.13;5060611;28;20388;-85
2022/01/10 10:27:38;;;;;;;;;;;;;;;12.63;53.61;102187.13;5060514;28;19939;-83
2022/01/10 10:30:06;;;;;;;;;;;;;;;12.29;54.78;102193.72;5077578;28;19923;-85
2022/01/10 10:32:32;;;;;;;;;;;;;;;12.69;53.77;102188.75;5060689;28;19932;-85
2022/01/10 10:34:57;;;;;;;;;;;;;;;12.58;54.74;102189.13;5059866;28;19917;-85
2022/01/10 10:37:22;;;;;;;;;;;;;;;12.50;53.69;102191.19;5059086;28;19916;-86
2022/01/10 10:39:48;;;;;;;;;;;;;;;12.96;53.18;102197.75;5059974;28;20416;-85
2022/01/10 10:42:14;;;;;;;;;;;;;;;12.73;53.46;102199.44;5059339;28;20019;-85
2022/01/10 10:44:42;;;;;;;;;;;;;;;12.16;54.63;102209.50;5077089;28;20289;-83
2022/01/10 10:47:08;;;;;;;;;;;;;;;12.10;55.70;102216.94;5058621;28;19930;-85
2022/01/10 10:49:37;;;;;;;;;;;;;;;12.34;53.86;102217.97;5077768;28;20007;-85
2022/01/10 10:52:05;;;;;;;;;;;;;;;12.64;53.08;102224.19;5077718;28;19917;-84
2022/01/10 10:54:32;;;;;;;;;;;;;;;12.46;54.11;102227.53;5058420;28;19916;-83
2022/01/10 10:56:58;;;;;;;;;;;;;;;13.25;51.85;102223.84;5059385;28;19923;-85
2022/01/10 10:59:28;;;;;;;;;;;;;;;12.49;53.29;102236.47;5060812;28;19916;-84
2022/01/10 11:01:54;;;;;;;;;;;;;;;12.32;53.76;102237.03;5061090;28;19924;-84
2022/01/10 11:04:20;;;;;;;;;;;;;;;12.31;54.86;102243.38;5079721;28;19917;-85
2022/01/10 11:06:45;;;;;;;;;;;;;;;12.30;55.51;102244.31;5060177;28;19917;-84
2022/01/10 11:09:12;;;;;;;;;;;;;;;12.68;53.67;102247.59;5059880;28;20015;-86
2022/01/10 11:11:38;;;;;;;;;;;;;;;12.29;54.70;102249.78;5059512;28;19921;-84
2022/01/10 11:14:04;;;;;;;;;;;;;;;12.22;54.43;102251.81;5059586;28;19919;-84
2022/01/10 11:16:29;;;;;;;;;;;;;;;12.43;54.64;102250.25;5077197;28;20329;-84
2022/01/10 11:18:55;;;;;;;;;;;;;;;12.88;53.81;102262.31;5060357;28;19916;-84
2022/01/10 11:21:23;;;;;;;;;;;;;;;11.99;55.36;102272.41;5078044;28;19918;-84
2022/01/10 11:23:50;;;;;;;;;;;;;;;11.32;57.79;102270.72;5059705;28;19921;-83
2022/01/10 11:26:17;;;;;;;;;;;;;;;11.73;56.19;102275.91;5077770;28;19965;-83
2022/01/10 11:28:50;;;;;;;;;;;;;;;11.63;56.57;102277.97;5058852;28;20018;-85
2022/01/10 11:31:22;;;;;;;;;;;;;;;11.69;57.09;102271.50;5059801;28;20370;-84
2022/01/10 11:33:48;;;;;;;;;;;;;;;12.15;55.56;102271.94;5060032;28;19917;-84
2022/01/10 11:36:14;;;;;;;;;;;;;;;12.27;54.89;102285.13;5060067;28;19923;-84
2022/01/10 11:38:45;;;;;;;;;;;;;;;12.24;55.71;102282.50;5060698;28;19916;-84
2022/01/10 11:41:12;;;;;;;;;;;;;;;12.45;54.76;102285.47;5077629;28;19916;-84
2022/01/10 11:43:45;;;;;;;;;;;;;;;12.76;53.35;102280.78;5076616;28;19917;-81
2022/01/10 11:46:22;;;;;;;;;;;;;;;12.07;55.04;102287.56;5058605;28;19923;-86
2022/01/10 11:48:52;;;;;;;;;;;;;;;12.04;56.12;102291.25;5059080;28;19998;-82
2022/01/10 11:51:19;;;;;;;;;;;;;;;12.46;55.35;102296.28;5076707;28;19917;-86
2022/01/10 11:53:46;;;;;;;;;;;;;;;12.66;55.17;102292.03;5058383;28;19958;-85
2022/01/10 11:56:25;;;;;;;;;;;;;;;12.02;56.13;102310.28;5060196;28;19917;-85
2022/01/10 11:59:07;;;;;;;;;;;;;;;11.47;57.97;102309.16;5060373;28;19916;-84
2022/01/10 12:01:34;;;;;;;;;;;;;;;11.93;56.96;102305.16;5058901;28;19963;-85
2022/01/10 12:03:59;;;;;;;;;;;;;;;11.87;56.94;102314.31;5061084;28;20003;-84
2022/01/10 12:06:25;;;;;;;;;;;;;;;11.91;56.44;102316.94;5059844;28;19963;-85
2022/01/10 12:08:53;;;;;;;;;;;;;;;12.37;55.56;102318.28;5078129;28;20007;-85
2022/01/10 12:11:19;;;;;;;;;;;;;;;13.54;53.07;102313.47;5058752;28;19921;-84
2022/01/10 12:13:44;;;;;;;;;;;;;;;12.67;54.03;102312.81;5077283;28;19972;-84
2022/01/10 12:16:10;;;;;;;;;;;;;;;12.63;54.96;102320.16;5059121;28;19993;-85
2022/01/10 12:18:35;;;;;;;;;;;;;;;12.31;55.29;102324.78;5058693;28;19920;-85
2022/01/10 12:21:00;;;;;;;;;;;;;;;12.84;53.28;102325.81;5059536;28;19923;-85
2022/01/10 12:23:26;;;;;;;;;;;;;;;12.80;53.85;102335.88;5077025;28;20377;-84
2022/01/10 12:25:51;;;;;;;;;;;;;;;12.71;54.00;102334.38;5059636;28;20020;-85
2022/01/10 12:28:17;;;;;;;;;;;;;;;12.88;53.50;102332.94;5059690;28;19964;-85
2022/01/10 12:30:44;;;;;;;;;;;;;;;13.26;52.37;102341.59;5077551;28;19986;-84
2022/01/10 12:33:10;;;;;;;;;;;;;;;13.52;52.06;102343.41;5058924;28;20393;-86
2022/01/10 12:35:35;;;;;;;;;;;;;;;13.60;50.91;102343.13;5058279;28;19916;-85
2022/01/10 12:38:01;;;;;;;;;;;;;;;12.96;52.61;102349.84;5077443;28;19923;-85
2022/01/10 12:40:31;;;;;;;;;;;;;;;12.63;52.81;102352.72;5076806;28;20007;-85